sensor_id;sensor_type;location;lat;lon;timestamp;temperature;humidity
26224;DHT22;14820;48.682;8.890;2022-07-21T00:00:34;19.50;99.90
26224;DHT22;14820;48.682;8.890;2022-07-21T00:02:59;19.50;99.90
26224;DHT22;14820;48.682;8.890;2022-07-21T00:05:26;19.40;99.90
26224;DHT22;14820;48.682;8.890;2022-07-21T00:07:52;19.30;99.90
26224;DHT22;14820;48.682;8.890;2022-07-21T00:10:23;19.30;99.90
26224;DHT22;14820;48.682;8.890;2022-07-21T00:12:50;19.20;99.90
26224;DHT22;14820;48.682;8.890;2022-07-21T00:15:18;19.20;99.90
26224;DHT22;14820;48.682;8.890;2022-07-21T00:17:44;19.20;99.90
26224;DHT22;14820;48.682;8.890;2022-07-21T00:20:11;19.20;99.90
26224;DHT22;14820;48.682;8.890;2022-07-21T00:22:37;19.20;99.90
26224;DHT22;14820;48.682;8.890;2022-07-21T00:25:04;19.10;99.90
26224;DHT22;14820;48.682;8.890;2022-07-21T00:27:30;19.20;99.90
26224;DHT22;14820;48.682;8.890;2022-07-21T00:29:56;19.10;99.90
26224;DHT22;14820;48.682;8.890;2022-07-21T00:32:21;19.10;99.90
26224;DHT22;14820;48.682;8.890;2022-07-21T00:34:47;19.10;99.90
26224;DHT22;14820;48.682;8.890;2022-07-21T00:37:13;19.00;99.90
26224;DHT22;14820;48.682;8.890;2022-07-21T00:39:38;19.00;99.90
26224;DHT22;14820;48.682;8.890;2022-07-21T00:42:05;19.00;99.90
26224;DHT22;14820;48.682;8.890;2022-07-21T00:44:30;18.90;99.90
26224;DHT22;14820;48.682;8.890;2022-07-21T00:46:56;18.90;99.90
26224;DHT22;14820;48.682;8.890;2022-07-21T00:49:22;18.90;99.90
26224;DHT22;14820;48.682;8.890;2022-07-21T00:51:49;18.80;99.90
26224;DHT22;14820;48.682;8.890;2022-07-21T00:54:15;18.80;99.90
26224;DHT22;14820;48.682;8.890;2022-07-21T00:56:42;18.90;99.90
26224;DHT22;14820;48.682;8.890;2022-07-21T00:59:08;18.90;99.90
26224;DHT22;14820;48.682;8.890;2022-07-21T01:01:35;19.00;99.90
26224;DHT22;14820;48.682;8.890;2022-07-21T01:04:01;19.10;99.90
26224;DHT22;14820;48.682;8.890;2022-07-21T01:06:26;19.00;99.90
26224;DHT22;14820;48.682;8.890;2022-07-21T01:08:53;19.00;99.90
26224;DHT22;14820;48.682;8.890;2022-07-21T01:11:20;18.90;99.90
26224;DHT22;14820;48.682;8.890;2022-07-21T01:13:47;18.90;99.90
26224;DHT22;14820;48.682;8.890;2022-07-21T01:16:13;18.80;99.90
26224;DHT22;14820;48.682;8.890;2022-07-21T01:18:39;18.90;99.90
26224;DHT22;14820;48.682;8.890;2022-07-21T01:23:44;18.80;99.90
26224;DHT22;14820;48.682;8.890;2022-07-21T01:26:10;18.90;99.90
26224;DHT22;14820;48.682;8.890;2022-07-21T01:28:35;18.90;99.90
26224;DHT22;14820;48.682;8.890;2022-07-21T01:31:01;19.00;99.90
26224;DHT22;14820;48.682;8.890;2022-07-21T01:33:26;19.00;99.90
26224;DHT22;14820;48.682;8.890;2022-07-21T01:35:52;19.00;99.90
26224;DHT22;14820;48.682;8.890;2022-07-21T01:38:18;19.00;99.90
26224;DHT22;14820;48.682;8.890;2022-07-21T01:41:06;18.90;99.90
26224;DHT22;14820;48.682;8.890;2022-07-21T01:43:51;18.80;99.90
26224;DHT22;14820;48.682;8.890;2022-07-21T01:46:16;18.80;99.90
26224;DHT22;14820;48.682;8.890;2022-07-21T01:48:45;18.70;99.90
26224;DHT22;14820;48.682;8.890;2022-07-21T01:51:11;18.70;99.90
26224;DHT22;14820;48.682;8.890;2022-07-21T01:53:37;18.70;99.90
26224;DHT22;14820;48.682;8.890;2022-07-21T01:56:04;18.60;99.90
26224;DHT22;14820;48.682;8.890;2022-07-21T01:58:30;18.70;99.90
26224;DHT22;14820;48.682;8.890;2022-07-21T02:00:56;18.80;99.90
26224;DHT22;14820;48.682;8.890;2022-07-21T02:03:22;18.80;99.90
26224;DHT22;14820;48.682;8.890;2022-07-21T02:05:48;18.80;99.90
26224;DHT22;14820;48.682;8.890;2022-07-21T02:08:13;18.90;99.90
26224;DHT22;14820;48.682;8.890;2022-07-21T02:10:39;19.00;99.90
26224;DHT22;14820;48.682;8.890;2022-07-21T02:13:05;19.00;99.90
26224;DHT22;14820;48.682;8.890;2022-07-21T02:15:31;19.00;99.90
26224;DHT22;14820;48.682;8.890;2022-07-21T02:17:57;18.90;99.90
26224;DHT22;14820;48.682;8.890;2022-07-21T02:20:23;18.90;99.90
26224;DHT22;14820;48.682;8.890;2022-07-21T02:22:49;18.90;99.90
26224;DHT22;14820;48.682;8.890;2022-07-21T02:25:16;18.80;99.90
26224;DHT22;14820;48.682;8.890;2022-07-21T02:27:43;18.80;99.90
26224;DHT22;14820;48.682;8.890;2022-07-21T02:30:09;18.80;99.90
26224;DHT22;14820;48.682;8.890;2022-07-21T02:32:35;18.80;99.90
26224;DHT22;14820;48.682;8.890;2022-07-21T02:35:01;18.70;99.90
26224;DHT22;14820;48.682;8.890;2022-07-21T02:37:28;18.80;99.90
26224;DHT22;14820;48.682;8.890;2022-07-21T02:39:53;18.80;99.90
26224;DHT22;14820;48.682;8.890;2022-07-21T02:42:19;18.70;99.90
26224;DHT22;14820;48.682;8.890;2022-07-21T02:44:45;18.80;99.90
26224;DHT22;14820;48.682;8.890;2022-07-21T02:47:11;18.80;99.90
26224;DHT22;14820;48.682;8.890;2022-07-21T02:49:37;18.80;99.90
26224;DHT22;14820;48.682;8.890;2022-07-21T02:52:03;18.80;99.90
26224;DHT22;14820;48.682;8.890;2022-07-21T02:54:29;18.80;99.90
26224;DHT22;14820;48.682;8.890;2022-07-21T02:56:54;18.70;99.90
26224;DHT22;14820;48.682;8.890;2022-07-21T02:59:20;18.70;99.90
26224;DHT22;14820;48.682;8.890;2022-07-21T03:01:46;18.70;99.90
26224;DHT22;14820;48.682;8.890;2022-07-21T03:04:12;18.70;99.90
26224;DHT22;14820;48.682;8.890;2022-07-21T03:06:38;18.70;99.90
26224;DHT22;14820;48.682;8.890;2022-07-21T03:09:04;18.70;99.90
26224;DHT22;14820;48.682;8.890;2022-07-21T03:11:30;18.60;99.90
26224;DHT22;14820;48.682;8.890;2022-07-21T03:13:56;18.60;99.90
26224;DHT22;14820;48.682;8.890;2022-07-21T03:16:22;18.60;99.90
26224;DHT22;14820;48.682;8.890;2022-07-21T03:18:47;18.60;99.90
26224;DHT22;14820;48.682;8.890;2022-07-21T03:21:14;18.60;99.90
26224;DHT22;14820;48.682;8.890;2022-07-21T03:23:39;18.60;99.90
26224;DHT22;14820;48.682;8.890;2022-07-21T03:26:14;18.50;99.90
26224;DHT22;14820;48.682;8.890;2022-07-21T03:28:41;18.50;99.90
26224;DHT22;14820;48.682;8.890;2022-07-21T03:31:06;18.50;99.90
26224;DHT22;14820;48.682;8.890;2022-07-21T03:33:32;18.60;99.90
26224;DHT22;14820;48.682;8.890;2022-07-21T03:35:58;18.60;99.90
26224;DHT22;14820;48.682;8.890;2022-07-21T03:38:25;18.60;99.90
26224;DHT22;14820;48.682;8.890;2022-07-21T03:40:51;18.60;99.90
26224;DHT22;14820;48.682;8.890;2022-07-21T03:43:16;18.50;99.90
26224;DHT22;14820;48.682;8.890;2022-07-21T03:45:42;18.50;99.90
26224;DHT22;14820;48.682;8.890;2022-07-21T03:48:09;18.50;99.90
26224;DHT22;14820;48.682;8.890;2022-07-21T03:50:37;18.50;99.90
26224;DHT22;14820;48.682;8.890;2022-07-21T03:53:04;18.50;99.90
26224;DHT22;14820;48.682;8.890;2022-07-21T03:55:30;18.50;99.90
26224;DHT22;14820;48.682;8.890;2022-07-21T03:58:01;18.40;99.90
26224;DHT22;14820;48.682;8.890;2022-07-21T04:00:37;18.40;99.90
26224;DHT22;14820;48.682;8.890;2022-07-21T04:03:04;18.50;99.90
26224;DHT22;14820;48.682;8.890;2022-07-21T04:05:30;18.50;99.90
26224;DHT22;14820;48.682;8.890;2022-07-21T04:07:56;18.50;99.90
26224;DHT22;14820;48.682;8.890;2022-07-21T04:10:27;18.50;99.90
26224;DHT22;14820;48.682;8.890;2022-07-21T04:12:54;18.50;99.90
26224;DHT22;14820;48.682;8.890;2022-07-21T04:15:20;18.50;99.90
26224;DHT22;14820;48.682;8.890;2022-07-21T04:17:46;18.40;99.90
26224;DHT22;14820;48.682;8.890;2022-07-21T04:20:13;18.40;99.90
26224;DHT22;14820;48.682;8.890;2022-07-21T04:22:40;18.40;99.90
26224;DHT22;14820;48.682;8.890;2022-07-21T04:25:07;18.40;99.90
26224;DHT22;14820;48.682;8.890;2022-07-21T04:27:34;18.40;99.90
26224;DHT22;14820;48.682;8.890;2022-07-21T04:30:00;18.40;99.90
26224;DHT22;14820;48.682;8.890;2022-07-21T04:32:26;18.30;99.90
26224;DHT22;14820;48.682;8.890;2022-07-21T04:34:52;18.30;99.90
26224;DHT22;14820;48.682;8.890;2022-07-21T04:37:18;18.30;99.90
26224;DHT22;14820;48.682;8.890;2022-07-21T04:39:43;18.30;99.90
26224;DHT22;14820;48.682;8.890;2022-07-21T04:42:09;18.40;99.90
26224;DHT22;14820;48.682;8.890;2022-07-21T04:44:35;18.30;99.90
26224;DHT22;14820;48.682;8.890;2022-07-21T04:47:00;18.30;99.90
26224;DHT22;14820;48.682;8.890;2022-07-21T04:49:26;18.30;99.90
26224;DHT22;14820;48.682;8.890;2022-07-21T04:51:51;18.30;99.90
26224;DHT22;14820;48.682;8.890;2022-07-21T04:54:17;18.30;99.90
26224;DHT22;14820;48.682;8.890;2022-07-21T04:56:43;18.30;99.90
26224;DHT22;14820;48.682;8.890;2022-07-21T04:59:10;18.40;99.90
26224;DHT22;14820;48.682;8.890;2022-07-21T05:01:37;18.40;99.90
26224;DHT22;14820;48.682;8.890;2022-07-21T05:04:03;18.40;99.90
26224;DHT22;14820;48.682;8.890;2022-07-21T05:06:29;18.40;99.90
26224;DHT22;14820;48.682;8.890;2022-07-21T05:08:55;18.30;99.90
26224;DHT22;14820;48.682;8.890;2022-07-21T05:11:20;18.30;99.90
26224;DHT22;14820;48.682;8.890;2022-07-21T05:13:46;18.30;99.90
26224;DHT22;14820;48.682;8.890;2022-07-21T05:16:12;18.40;99.90
26224;DHT22;14820;48.682;8.890;2022-07-21T05:18:38;18.40;99.90
26224;DHT22;14820;48.682;8.890;2022-07-21T05:21:03;18.40;99.90
26224;DHT22;14820;48.682;8.890;2022-07-21T05:23:29;18.40;99.90
26224;DHT22;14820;48.682;8.890;2022-07-21T05:25:55;18.40;99.90
26224;DHT22;14820;48.682;8.890;2022-07-21T05:28:21;18.40;99.90
26224;DHT22;14820;48.682;8.890;2022-07-21T05:30:46;18.40;99.90
26224;DHT22;14820;48.682;8.890;2022-07-21T05:33:12;18.50;99.90
26224;DHT22;14820;48.682;8.890;2022-07-21T05:35:38;18.50;99.90
26224;DHT22;14820;48.682;8.890;2022-07-21T05:38:04;18.50;99.90
26224;DHT22;14820;48.682;8.890;2022-07-21T05:40:29;18.50;99.90
26224;DHT22;14820;48.682;8.890;2022-07-21T05:42:55;18.50;99.90
26224;DHT22;14820;48.682;8.890;2022-07-21T05:45:21;18.60;99.90
26224;DHT22;14820;48.682;8.890;2022-07-21T05:47:46;18.60;99.90
26224;DHT22;14820;48.682;8.890;2022-07-21T05:50:13;18.60;99.90
26224;DHT22;14820;48.682;8.890;2022-07-21T05:52:38;18.70;99.90
26224;DHT22;14820;48.682;8.890;2022-07-21T05:55:05;18.80;99.90
26224;DHT22;14820;48.682;8.890;2022-07-21T05:57:31;18.80;99.90
26224;DHT22;14820;48.682;8.890;2022-07-21T05:59:57;18.80;99.90
26224;DHT22;14820;48.682;8.890;2022-07-21T06:02:24;18.90;99.90
26224;DHT22;14820;48.682;8.890;2022-07-21T06:04:50;19.00;99.90
26224;DHT22;14820;48.682;8.890;2022-07-21T06:07:17;19.00;99.90
26224;DHT22;14820;48.682;8.890;2022-07-21T06:09:42;19.10;99.90
26224;DHT22;14820;48.682;8.890;2022-07-21T06:12:08;19.10;99.90
26224;DHT22;14820;48.682;8.890;2022-07-21T06:14:35;19.20;99.90
26224;DHT22;14820;48.682;8.890;2022-07-21T06:17:00;19.20;99.90
26224;DHT22;14820;48.682;8.890;2022-07-21T06:19:26;19.30;99.90
26224;DHT22;14820;48.682;8.890;2022-07-21T06:21:52;19.40;99.90
26224;DHT22;14820;48.682;8.890;2022-07-21T06:24:17;19.40;99.90
26224;DHT22;14820;48.682;8.890;2022-07-21T06:26:45;19.40;99.90
26224;DHT22;14820;48.682;8.890;2022-07-21T06:29:10;19.40;99.90
26224;DHT22;14820;48.682;8.890;2022-07-21T06:31:36;19.50;99.90
26224;DHT22;14820;48.682;8.890;2022-07-21T06:34:02;19.50;99.90
26224;DHT22;14820;48.682;8.890;2022-07-21T06:36:28;19.60;99.90
26224;DHT22;14820;48.682;8.890;2022-07-21T06:38:54;19.70;99.90
26224;DHT22;14820;48.682;8.890;2022-07-21T06:41:19;19.60;99.90
26224;DHT22;14820;48.682;8.890;2022-07-21T06:43:45;19.60;99.90
26224;DHT22;14820;48.682;8.890;2022-07-21T06:46:10;19.80;99.90
26224;DHT22;14820;48.682;8.890;2022-07-21T06:48:36;19.90;99.90
26224;DHT22;14820;48.682;8.890;2022-07-21T06:51:02;20.00;99.90
26224;DHT22;14820;48.682;8.890;2022-07-21T06:53:28;20.00;99.90
26224;DHT22;14820;48.682;8.890;2022-07-21T06:55:53;20.10;99.90
26224;DHT22;14820;48.682;8.890;2022-07-21T06:58:21;20.20;99.90
26224;DHT22;14820;48.682;8.890;2022-07-21T07:00:48;20.20;99.90
26224;DHT22;14820;48.682;8.890;2022-07-21T07:03:15;20.10;99.90
26224;DHT22;14820;48.682;8.890;2022-07-21T07:05:41;20.10;99.90
26224;DHT22;14820;48.682;8.890;2022-07-21T07:08:07;20.10;99.90
26224;DHT22;14820;48.682;8.890;2022-07-21T07:10:33;20.20;99.90
26224;DHT22;14820;48.682;8.890;2022-07-21T07:12:59;20.20;99.90
26224;DHT22;14820;48.682;8.890;2022-07-21T07:15:26;20.20;99.90
26224;DHT22;14820;48.682;8.890;2022-07-21T07:17:52;20.20;99.90
26224;DHT22;14820;48.682;8.890;2022-07-21T07:20:18;20.20;99.90
26224;DHT22;14820;48.682;8.890;2022-07-21T07:22:44;20.20;99.90
26224;DHT22;14820;48.682;8.890;2022-07-21T07:25:10;20.20;99.90
26224;DHT22;14820;48.682;8.890;2022-07-21T07:27:36;20.20;99.90
26224;DHT22;14820;48.682;8.890;2022-07-21T07:30:02;20.20;99.90
26224;DHT22;14820;48.682;8.890;2022-07-21T07:32:28;20.30;99.90
26224;DHT22;14820;48.682;8.890;2022-07-21T07:34:53;20.40;99.90
26224;DHT22;14820;48.682;8.890;2022-07-21T07:37:19;20.40;99.90
26224;DHT22;14820;48.682;8.890;2022-07-21T07:39:45;20.50;99.90
26224;DHT22;14820;48.682;8.890;2022-07-21T07:42:11;20.50;99.90
26224;DHT22;14820;48.682;8.890;2022-07-21T07:44:36;20.60;99.90
26224;DHT22;14820;48.682;8.890;2022-07-21T07:47:02;20.60;99.90
26224;DHT22;14820;48.682;8.890;2022-07-21T07:49:31;20.70;99.90
26224;DHT22;14820;48.682;8.890;2022-07-21T07:51:57;20.90;99.90
26224;DHT22;14820;48.682;8.890;2022-07-21T07:54:23;21.00;99.90
26224;DHT22;14820;48.682;8.890;2022-07-21T07:56:49;21.10;99.90
26224;DHT22;14820;48.682;8.890;2022-07-21T07:59:15;21.10;99.90
26224;DHT22;14820;48.682;8.890;2022-07-21T08:01:41;21.30;99.90
26224;DHT22;14820;48.682;8.890;2022-07-21T08:04:06;21.40;99.90
26224;DHT22;14820;48.682;8.890;2022-07-21T08:06:32;21.40;99.90
26224;DHT22;14820;48.682;8.890;2022-07-21T08:08:58;21.50;99.90
26224;DHT22;14820;48.682;8.890;2022-07-21T08:11:24;21.70;99.90
26224;DHT22;14820;48.682;8.890;2022-07-21T08:13:50;21.70;99.90
26224;DHT22;14820;48.682;8.890;2022-07-21T08:16:16;21.70;99.90
26224;DHT22;14820;48.682;8.890;2022-07-21T08:18:42;21.60;99.90
26224;DHT22;14820;48.682;8.890;2022-07-21T08:21:09;21.70;99.90
26224;DHT22;14820;48.682;8.890;2022-07-21T08:23:35;21.70;99.90
26224;DHT22;14820;48.682;8.890;2022-07-21T08:26:00;21.70;99.90
26224;DHT22;14820;48.682;8.890;2022-07-21T08:28:26;21.70;99.90
26224;DHT22;14820;48.682;8.890;2022-07-21T08:30:52;21.80;99.90
26224;DHT22;14820;48.682;8.890;2022-07-21T08:33:18;21.80;99.90
26224;DHT22;14820;48.682;8.890;2022-07-21T08:35:44;21.80;99.90
26224;DHT22;14820;48.682;8.890;2022-07-21T08:38:10;21.70;99.90
26224;DHT22;14820;48.682;8.890;2022-07-21T08:40:41;21.80;99.90
26224;DHT22;14820;48.682;8.890;2022-07-21T08:43:07;21.90;99.90
26224;DHT22;14820;48.682;8.890;2022-07-21T08:45:35;21.90;99.90
26224;DHT22;14820;48.682;8.890;2022-07-21T08:48:01;22.10;99.90
26224;DHT22;14820;48.682;8.890;2022-07-21T08:50:36;22.30;99.90
26224;DHT22;14820;48.682;8.890;2022-07-21T08:53:03;22.30;99.90
26224;DHT22;14820;48.682;8.890;2022-07-21T08:55:35;22.40;99.90
26224;DHT22;14820;48.682;8.890;2022-07-21T08:58:01;22.50;99.90
26224;DHT22;14820;48.682;8.890;2022-07-21T09:00:28;22.60;99.90
26224;DHT22;14820;48.682;8.890;2022-07-21T09:03:20;22.70;99.90
26224;DHT22;14820;48.682;8.890;2022-07-21T09:08:36;22.50;99.90
26224;DHT22;14820;48.682;8.890;2022-07-21T09:11:28;22.50;99.90
26224;DHT22;14820;48.682;8.890;2022-07-21T09:19:00;22.60;99.90
26224;DHT22;14820;48.682;8.890;2022-07-21T09:21:26;22.60;99.90
26224;DHT22;14820;48.682;8.890;2022-07-21T09:23:52;22.60;99.90
26224;DHT22;14820;48.682;8.890;2022-07-21T09:26:17;22.70;99.90
26224;DHT22;14820;48.682;8.890;2022-07-21T09:28:43;22.70;99.90
26224;DHT22;14820;48.682;8.890;2022-07-21T09:31:10;22.90;99.90
26224;DHT22;14820;48.682;8.890;2022-07-21T09:33:41;23.10;99.90
26224;DHT22;14820;48.682;8.890;2022-07-21T09:38:43;23.10;99.90
26224;DHT22;14820;48.682;8.890;2022-07-21T09:41:14;23.30;99.90
26224;DHT22;14820;48.682;8.890;2022-07-21T09:43:51;23.50;99.90
26224;DHT22;14820;48.682;8.890;2022-07-21T09:48:45;23.70;99.90
26224;DHT22;14820;48.682;8.890;2022-07-21T09:56:34;23.80;99.90
26224;DHT22;14820;48.682;8.890;2022-07-21T09:59:00;23.80;99.90
26224;DHT22;14820;48.682;8.890;2022-07-21T10:01:27;23.90;99.90
26224;DHT22;14820;48.682;8.890;2022-07-21T10:03:55;24.00;99.90
26224;DHT22;14820;48.682;8.890;2022-07-21T10:06:26;24.00;99.90
26224;DHT22;14820;48.682;8.890;2022-07-21T10:08:55;24.10;99.90
26224;DHT22;14820;48.682;8.890;2022-07-21T10:11:21;24.20;99.90
26224;DHT22;14820;48.682;8.890;2022-07-21T10:13:48;24.20;99.90
26224;DHT22;14820;48.682;8.890;2022-07-21T10:16:14;24.20;99.90
26224;DHT22;14820;48.682;8.890;2022-07-21T10:19:02;24.20;99.90
26224;DHT22;14820;48.682;8.890;2022-07-21T10:21:50;24.20;99.90
26224;DHT22;14820;48.682;8.890;2022-07-21T10:24:18;24.20;99.90
26224;DHT22;14820;48.682;8.890;2022-07-21T10:27:06;24.30;99.90
26224;DHT22;14820;48.682;8.890;2022-07-21T10:32:25;24.30;99.90
26224;DHT22;14820;48.682;8.890;2022-07-21T10:34:56;24.20;99.90
26224;DHT22;14820;48.682;8.890;2022-07-21T10:45:38;24.60;99.90
26224;DHT22;14820;48.682;8.890;2022-07-21T10:48:06;24.60;99.90
26224;DHT22;14820;48.682;8.890;2022-07-21T10:52:59;24.70;99.90
26224;DHT22;14820;48.682;8.890;2022-07-21T10:55:28;24.80;99.90
26224;DHT22;14820;48.682;8.890;2022-07-21T10:58:12;24.90;99.90
26224;DHT22;14820;48.682;8.890;2022-07-21T11:01:00;25.00;99.90
26224;DHT22;14820;48.682;8.890;2022-07-21T11:03:28;25.10;99.90
26224;DHT22;14820;48.682;8.890;2022-07-21T11:06:15;25.20;99.90
26224;DHT22;14820;48.682;8.890;2022-07-21T11:08:46;25.20;99.90
26224;DHT22;14820;48.682;8.890;2022-07-21T11:11:24;25.30;99.90
26224;DHT22;14820;48.682;8.890;2022-07-21T11:14:16;25.40;99.90
26224;DHT22;14820;48.682;8.890;2022-07-21T11:22:24;25.20;99.90
26224;DHT22;14820;48.682;8.890;2022-07-21T11:27:23;25.20;99.90
26224;DHT22;14820;48.682;8.890;2022-07-21T11:29:51;25.30;99.90
26224;DHT22;14820;48.682;8.890;2022-07-21T11:32:17;25.20;99.90
26224;DHT22;14820;48.682;8.890;2022-07-21T11:34:58;25.20;99.80
26224;DHT22;14820;48.682;8.890;2022-07-21T11:40:04;25.30;99.80
26224;DHT22;14820;48.682;8.890;2022-07-21T11:42:30;25.50;99.10
26224;DHT22;14820;48.682;8.890;2022-07-21T11:44:56;25.60;99.30
26224;DHT22;14820;48.682;8.890;2022-07-21T11:47:23;25.70;99.20
26224;DHT22;14820;48.682;8.890;2022-07-21T11:49:56;25.80;98.60
26224;DHT22;14820;48.682;8.890;2022-07-21T11:52:40;25.90;97.90
26224;DHT22;14820;48.682;8.890;2022-07-21T11:55:08;25.90;97.40
26224;DHT22;14820;48.682;8.890;2022-07-21T11:57:34;25.90;97.20
26224;DHT22;14820;48.682;8.890;2022-07-21T12:00:00;26.00;96.40
26224;DHT22;14820;48.682;8.890;2022-07-21T12:02:30;26.00;96.90
26224;DHT22;14820;48.682;8.890;2022-07-21T12:04:57;26.10;96.20
26224;DHT22;14820;48.682;8.890;2022-07-21T12:07:35;26.20;95.20
26224;DHT22;14820;48.682;8.890;2022-07-21T12:10:07;26.10;95.30
26224;DHT22;14820;48.682;8.890;2022-07-21T12:12:46;26.00;96.00
26224;DHT22;14820;48.682;8.890;2022-07-21T12:15:17;26.00;95.90
26224;DHT22;14820;48.682;8.890;2022-07-21T12:17:49;26.00;95.70
26224;DHT22;14820;48.682;8.890;2022-07-21T12:20:24;26.00;95.10
26224;DHT22;14820;48.682;8.890;2022-07-21T12:22:50;26.20;95.30
26224;DHT22;14820;48.682;8.890;2022-07-21T12:25:18;26.30;95.30
26224;DHT22;14820;48.682;8.890;2022-07-21T12:27:47;26.30;94.70
26224;DHT22;14820;48.682;8.890;2022-07-21T12:30:41;26.30;94.60
26224;DHT22;14820;48.682;8.890;2022-07-21T12:33:13;26.30;94.80
26224;DHT22;14820;48.682;8.890;2022-07-21T12:36:08;26.40;95.20
26224;DHT22;14820;48.682;8.890;2022-07-21T12:38:45;26.30;95.30
26224;DHT22;14820;48.682;8.890;2022-07-21T12:41:18;26.40;96.20
26224;DHT22;14820;48.682;8.890;2022-07-21T12:43:56;26.60;95.30
26224;DHT22;14820;48.682;8.890;2022-07-21T12:46:31;26.60;94.80
26224;DHT22;14820;48.682;8.890;2022-07-21T12:49:06;26.60;94.20
26224;DHT22;14820;48.682;8.890;2022-07-21T12:51:32;26.60;93.60
26224;DHT22;14820;48.682;8.890;2022-07-21T12:53:58;26.60;93.30
26224;DHT22;14820;48.682;8.890;2022-07-21T12:56:30;26.60;93.00
26224;DHT22;14820;48.682;8.890;2022-07-21T12:58:57;26.70;93.50
26224;DHT22;14820;48.682;8.890;2022-07-21T13:01:25;26.90;92.70
26224;DHT22;14820;48.682;8.890;2022-07-21T13:03:52;27.00;92.10
26224;DHT22;14820;48.682;8.890;2022-07-21T13:06:17;26.90;91.30
26224;DHT22;14820;48.682;8.890;2022-07-21T13:08:45;26.80;91.70
26224;DHT22;14820;48.682;8.890;2022-07-21T13:11:14;26.70;91.40
26224;DHT22;14820;48.682;8.890;2022-07-21T13:13:40;26.70;91.00
26224;DHT22;14820;48.682;8.890;2022-07-21T13:16:06;26.60;91.50
26224;DHT22;14820;48.682;8.890;2022-07-21T13:18:33;26.60;91.30
26224;DHT22;14820;48.682;8.890;2022-07-21T13:20:59;26.60;91.90
26224;DHT22;14820;48.682;8.890;2022-07-21T13:23:24;26.60;91.40
26224;DHT22;14820;48.682;8.890;2022-07-21T13:25:50;26.50;91.10
26224;DHT22;14820;48.682;8.890;2022-07-21T13:28:17;26.40;91.10
26224;DHT22;14820;48.682;8.890;2022-07-21T13:30:44;26.40;91.50
26224;DHT22;14820;48.682;8.890;2022-07-21T13:33:10;26.40;91.50
26224;DHT22;14820;48.682;8.890;2022-07-21T13:35:36;26.50;91.90
26224;DHT22;14820;48.682;8.890;2022-07-21T13:38:02;26.60;91.60
26224;DHT22;14820;48.682;8.890;2022-07-21T13:40:28;26.60;90.50
26224;DHT22;14820;48.682;8.890;2022-07-21T13:42:55;26.60;89.10
26224;DHT22;14820;48.682;8.890;2022-07-21T13:45:21;26.50;90.40
26224;DHT22;14820;48.682;8.890;2022-07-21T13:47:47;26.50;91.30
26224;DHT22;14820;48.682;8.890;2022-07-21T13:50:13;26.50;90.80
26224;DHT22;14820;48.682;8.890;2022-07-21T13:52:38;26.40;90.90
26224;DHT22;14820;48.682;8.890;2022-07-21T13:55:07;26.40;90.60
26224;DHT22;14820;48.682;8.890;2022-07-21T13:57:33;26.40;90.60
26224;DHT22;14820;48.682;8.890;2022-07-21T13:59:59;26.30;89.40
26224;DHT22;14820;48.682;8.890;2022-07-21T14:02:25;26.40;90.30
26224;DHT22;14820;48.682;8.890;2022-07-21T14:04:51;26.40;89.20
26224;DHT22;14820;48.682;8.890;2022-07-21T14:07:16;26.50;90.10
26224;DHT22;14820;48.682;8.890;2022-07-21T14:09:43;26.50;88.70
26224;DHT22;14820;48.682;8.890;2022-07-21T14:12:09;26.40;89.10
26224;DHT22;14820;48.682;8.890;2022-07-21T14:14:38;26.30;90.10
26224;DHT22;14820;48.682;8.890;2022-07-21T14:17:05;26.30;90.50
26224;DHT22;14820;48.682;8.890;2022-07-21T14:19:30;26.30;91.40
26224;DHT22;14820;48.682;8.890;2022-07-21T14:21:56;26.30;90.20
26224;DHT22;14820;48.682;8.890;2022-07-21T14:24:22;26.30;90.70
26224;DHT22;14820;48.682;8.890;2022-07-21T14:27:06;26.20;92.30
26224;DHT22;14820;48.682;8.890;2022-07-21T14:29:32;26.20;92.10
26224;DHT22;14820;48.682;8.890;2022-07-21T14:31:58;26.20;92.00
26224;DHT22;14820;48.682;8.890;2022-07-21T14:34:24;26.20;91.70
26224;DHT22;14820;48.682;8.890;2022-07-21T14:36:49;26.20;92.20
26224;DHT22;14820;48.682;8.890;2022-07-21T14:39:17;26.20;93.60
26224;DHT22;14820;48.682;8.890;2022-07-21T14:41:43;26.30;93.20
26224;DHT22;14820;48.682;8.890;2022-07-21T14:44:10;26.30;93.30
26224;DHT22;14820;48.682;8.890;2022-07-21T14:46:36;26.30;93.50
26224;DHT22;14820;48.682;8.890;2022-07-21T14:49:02;26.30;93.30
26224;DHT22;14820;48.682;8.890;2022-07-21T14:51:28;26.20;93.20
26224;DHT22;14820;48.682;8.890;2022-07-21T14:53:53;26.20;93.70
26224;DHT22;14820;48.682;8.890;2022-07-21T14:56:19;26.30;93.80
26224;DHT22;14820;48.682;8.890;2022-07-21T14:58:45;26.30;93.40
26224;DHT22;14820;48.682;8.890;2022-07-21T15:01:11;26.30;93.40
26224;DHT22;14820;48.682;8.890;2022-07-21T15:03:36;26.30;92.70
26224;DHT22;14820;48.682;8.890;2022-07-21T15:06:02;26.20;93.30
26224;DHT22;14820;48.682;8.890;2022-07-21T15:08:30;26.10;94.00
26224;DHT22;14820;48.682;8.890;2022-07-21T15:10:56;26.10;93.70
26224;DHT22;14820;48.682;8.890;2022-07-21T15:13:21;26.00;93.60
26224;DHT22;14820;48.682;8.890;2022-07-21T15:15:47;26.00;93.20
26224;DHT22;14820;48.682;8.890;2022-07-21T15:18:13;26.00;93.40
26224;DHT22;14820;48.682;8.890;2022-07-21T15:20:39;26.00;93.70
26224;DHT22;14820;48.682;8.890;2022-07-21T15:23:05;25.90;93.50
26224;DHT22;14820;48.682;8.890;2022-07-21T15:25:31;25.90;93.50
26224;DHT22;14820;48.682;8.890;2022-07-21T15:27:57;25.90;93.80
26224;DHT22;14820;48.682;8.890;2022-07-21T15:30:22;25.90;93.60
26224;DHT22;14820;48.682;8.890;2022-07-21T15:32:48;25.90;94.10
26224;DHT22;14820;48.682;8.890;2022-07-21T15:35:14;25.90;94.40
26224;DHT22;14820;48.682;8.890;2022-07-21T15:37:39;25.90;93.90
26224;DHT22;14820;48.682;8.890;2022-07-21T15:40:06;25.90;94.10
26224;DHT22;14820;48.682;8.890;2022-07-21T15:42:32;26.00;94.30
26224;DHT22;14820;48.682;8.890;2022-07-21T15:45:01;26.10;93.90
26224;DHT22;14820;48.682;8.890;2022-07-21T15:47:27;26.20;93.90
26224;DHT22;14820;48.682;8.890;2022-07-21T15:49:53;26.20;94.40
26224;DHT22;14820;48.682;8.890;2022-07-21T15:52:18;26.20;94.00
26224;DHT22;14820;48.682;8.890;2022-07-21T15:54:44;26.20;94.00
26224;DHT22;14820;48.682;8.890;2022-07-21T15:57:10;26.20;94.20
26224;DHT22;14820;48.682;8.890;2022-07-21T15:59:36;26.30;94.10
26224;DHT22;14820;48.682;8.890;2022-07-21T16:02:09;26.30;93.60
26224;DHT22;14820;48.682;8.890;2022-07-21T16:04:35;26.30;92.50
26224;DHT22;14820;48.682;8.890;2022-07-21T16:07:02;26.40;93.00
26224;DHT22;14820;48.682;8.890;2022-07-21T16:09:29;26.40;93.10
26224;DHT22;14820;48.682;8.890;2022-07-21T16:11:55;26.50;92.60
26224;DHT22;14820;48.682;8.890;2022-07-21T16:14:22;26.50;92.80
26224;DHT22;14820;48.682;8.890;2022-07-21T16:16:48;26.60;92.40